createdAt,value
2022-10-01T00:00:55.475Z,89.64
2022-10-01T00:04:19.424Z,89.49
2022-10-01T00:07:46.289Z,89.14
2022-10-01T00:11:37.128Z,89.39
2022-10-01T00:15:01.055Z,89.59
2022-10-01T00:18:29.666Z,89.14
2022-10-01T00:21:53.542Z,89.59
2022-10-01T00:25:15.126Z,90.95
2022-10-01T00:28:37.038Z,92.12
2022-10-01T00:32:01.580Z,92.03
2022-10-01T00:35:28.656Z,91.27
2022-10-01T00:38:52.855Z,91.91
2022-10-01T00:42:22.558Z,92.18
2022-10-01T00:45:48.683Z,92.16
2022-10-01T00:49:20.428Z,92.05
2022-10-01T00:52:48.608Z,91.43
2022-10-01T00:56:10.239Z,91.22
2022-10-01T00:59:34.559Z,90.68
2022-10-01T01:02:56.189Z,89.93
2022-10-01T01:06:20.282Z,90.26
2022-10-01T01:09:47.524Z,90.45
2022-10-01T01:13:29.645Z,90.66
2022-10-01T01:17:00.128Z,90.66
2022-10-01T01:20:31.139Z,90.62
2022-10-01T01:24:23.133Z,90.05
2022-10-01T01:28:08.480Z,90.12
2022-10-01T01:31:39.900Z,90.26
2022-10-01T01:35:05.631Z,89.74
2022-10-01T01:38:37.861Z,90.44
2022-10-01T01:42:06.509Z,90.81
2022-10-01T01:45:31.974Z,90.68
2022-10-01T01:48:58.327Z,91.00
2022-10-01T01:52:22.314Z,90.45
2022-10-01T01:55:45.894Z,90.60
2022-10-01T01:59:08.535Z,90.19
2022-10-01T02:02:34.043Z,90.36
2022-10-01T02:06:14.486Z,89.91
2022-10-01T02:10:18.018Z,90.05
2022-10-01T02:14:17.335Z,90.00
2022-10-01T02:17:54.479Z,90.46
2022-10-01T02:21:34.655Z,90.37
2022-10-01T02:24:59.936Z,89.36
2022-10-01T02:28:23.553Z,90.20
2022-10-01T02:31:53.416Z,90.05
2022-10-01T02:35:20.051Z,90.24
2022-10-01T02:38:47.111Z,89.65
2022-10-01T02:42:14.702Z,89.84
2022-10-01T02:45:43.628Z,90.18
2022-10-01T02:49:05.240Z,90.22
2022-10-01T02:52:41.314Z,90.13
2022-10-01T02:56:04.496Z,90.08
2022-10-01T02:59:28.252Z,89.99
2022-10-01T03:02:50.396Z,89.65
2022-10-01T03:06:11.978Z,89.18
2022-10-01T03:09:37.361Z,89.83
2022-10-01T03:13:01.670Z,89.83
2022-10-01T03:16:25.540Z,89.65
2022-10-01T03:19:49.609Z,90.71
2022-10-01T03:23:13.196Z,90.82
2022-10-01T03:26:34.854Z,91.36
2022-10-01T03:29:58.688Z,91.56
2022-10-01T03:33:20.227Z,91.43
2022-10-01T03:36:41.718Z,91.02
2022-10-01T03:40:06.396Z,91.08
2022-10-01T03:43:30.457Z,90.35
2022-10-01T03:46:54.851Z,91.96
2022-10-01T03:50:16.368Z,92.90
2022-10-01T03:53:40.230Z,93.09
2022-10-01T03:57:02.374Z,92.05
2022-10-01T04:00:26.389Z,92.31
2022-10-01T04:03:49.987Z,92.32
2022-10-01T04:07:14.240Z,91.94
2022-10-01T04:10:35.837Z,91.83
2022-10-01T04:14:00.204Z,91.59
2022-10-01T04:17:22.187Z,90.90
2022-10-01T04:20:46.236Z,91.74
2022-10-01T04:24:10.118Z,91.77
2022-10-01T04:27:31.652Z,91.38
2022-10-01T04:31:13.195Z,91.09
2022-10-01T04:34:52.949Z,91.12
2022-10-01T04:38:19.757Z,90.62
2022-10-01T04:41:41.292Z,91.44
2022-10-01T04:45:02.823Z,91.63
2022-10-01T04:48:24.628Z,90.87
2022-10-01T04:51:48.908Z,90.71
2022-10-01T04:55:11.317Z,91.80
2022-10-01T04:58:35.074Z,91.94
2022-10-01T05:01:56.619Z,91.40
2022-10-01T05:05:20.130Z,90.90
2022-10-01T05:08:41.687Z,91.51
2022-10-01T05:12:03.230Z,91.45
2022-10-01T05:15:24.783Z,90.79
2022-10-01T05:18:48.424Z,90.46
2022-10-01T05:22:15.536Z,92.10
2022-10-01T05:25:42.789Z,92.80
2022-10-01T05:29:04.630Z,93.31
2022-10-01T05:32:26.158Z,93.53
2022-10-01T05:35:47.919Z,93.31
2022-10-01T05:39:09.566Z,93.22
2022-10-01T05:42:33.577Z,93.01
2022-10-01T05:46:03.408Z,92.83
2022-10-01T05:49:25.620Z,92.62
2022-10-01T05:52:53.432Z,92.44
2022-10-01T05:56:15.501Z,92.10
2022-10-01T05:59:41.831Z,91.29
2022-10-01T06:03:06.443Z,91.94
2022-10-01T06:06:30.623Z,91.79
2022-10-01T06:09:52.171Z,91.74
2022-10-01T06:13:17.674Z,91.60
2022-10-01T06:16:39.286Z,91.88
2022-10-01T06:20:01.260Z,92.49
2022-10-01T06:23:25.525Z,92.61
2022-10-01T06:26:50.128Z,92.41
2022-10-01T06:30:12.038Z,91.63
2022-10-01T06:33:33.776Z,91.79
2022-10-01T06:36:55.476Z,91.95
2022-10-01T06:40:17.020Z,92.25
2022-10-01T06:43:39.064Z,91.93
2022-10-01T06:47:00.593Z,91.32
2022-10-01T06:50:22.873Z,91.03
2022-10-01T06:53:44.412Z,91.77
2022-10-01T06:57:06.053Z,92.12
2022-10-01T07:00:29.925Z,91.34
2022-10-01T07:03:54.359Z,91.24
2022-10-01T07:07:15.945Z,91.89
2022-10-01T07:10:38.123Z,92.50
2022-10-01T07:14:01.474Z,92.64
2022-10-01T07:17:23.094Z,93.04
2022-10-01T07:20:44.666Z,92.56
2022-10-01T07:24:06.484Z,92.35
2022-10-01T07:27:28.103Z,92.21
2022-10-01T07:31:07.288Z,92.10
2022-10-01T07:34:31.108Z,92.06
2022-10-01T07:37:55.423Z,92.15
2022-10-01T07:41:17.849Z,92.13
2022-10-01T07:44:39.400Z,92.19
2022-10-01T07:48:05.816Z,91.81
2022-10-01T07:51:30.108Z,91.67
2022-10-01T07:54:51.623Z,91.95
2022-10-01T07:58:13.265Z,91.81
2022-10-01T08:01:38.110Z,92.34
2022-10-01T08:05:17.606Z,91.87
2022-10-01T08:08:41.897Z,91.67
2022-10-01T08:12:03.641Z,92.28
2022-10-01T08:15:28.693Z,95.81
2022-10-01T08:18:51.155Z,90.60
2022-10-01T08:22:15.784Z,93.63
2022-10-01T08:25:38.158Z,92.85
2022-10-01T08:28:59.639Z,92.77
2022-10-01T08:32:25.460Z,87.80
2022-10-01T08:35:49.482Z,87.26
2022-10-01T08:39:12.718Z,87.89
2022-10-01T08:42:46.144Z,90.55
2022-10-01T08:46:15.104Z,90.98
2022-10-01T08:49:42.352Z,90.84
2022-10-01T08:53:07.612Z,90.64
2022-10-01T08:56:35.507Z,90.85
2022-10-01T09:00:10.435Z,90.69
2022-10-01T09:03:35.062Z,90.95
2022-10-01T09:07:21.384Z,91.06
2022-10-01T09:10:45.674Z,90.76
2022-10-01T09:14:18.233Z,90.96
2022-10-01T09:17:43.930Z,90.10
2022-10-01T09:21:25.053Z,90.35
2022-10-01T09:24:54.795Z,90.53
2022-10-01T09:28:24.091Z,90.64
2022-10-01T09:31:50.340Z,90.51
2022-10-01T09:35:31.413Z,90.83
2022-10-01T09:39:08.943Z,90.75
2022-10-01T09:42:33.038Z,91.33
2022-10-01T09:45:57.384Z,91.59
2022-10-01T09:49:39.710Z,89.27
2022-10-01T09:53:02.214Z,90.37
2022-10-01T09:56:34.112Z,91.01
2022-10-01T10:00:04.097Z,90.33
2022-10-01T10:03:31.391Z,88.91
2022-10-01T10:07:03.918Z,88.66
2022-10-01T10:10:36.968Z,88.22
2022-10-01T10:14:03.664Z,84.58
2022-10-01T10:17:27.278Z,83.93
2022-10-01T10:20:52.761Z,85.45
2022-10-01T10:24:47.160Z,86.52
2022-10-01T10:28:23.741Z,86.53
2022-10-01T10:31:46.538Z,82.97
2022-10-01T10:35:13.546Z,80.48
2022-10-01T10:38:40.821Z,81.28
2022-10-01T10:42:05.794Z,80.91
2022-10-01T10:45:41.770Z,81.63
2022-10-01T10:49:18.478Z,80.35
2022-10-01T10:52:43.727Z,81.11
2022-10-01T10:56:21.910Z,83.20
2022-10-01T11:00:00.635Z,77.65
2022-10-01T11:03:27.853Z,78.01
2022-10-01T11:07:06.305Z,79.17
2022-10-01T11:10:43.104Z,81.58
2022-10-01T11:14:23.783Z,79.02
2022-10-01T11:18:17.837Z,79.75
2022-10-01T11:21:48.687Z,80.69
2022-10-01T11:25:42.108Z,77.89
2022-10-01T11:29:36.059Z,78.44
2022-10-01T11:33:10.737Z,77.48
2022-10-01T11:37:13.580Z,76.67
2022-10-01T11:40:41.119Z,80.42
2022-10-01T11:44:38.581Z,78.87
2022-10-01T11:48:54.038Z,81.51
2022-10-01T11:52:32.694Z,81.36
2022-10-01T11:56:14.604Z,81.35
2022-10-01T11:59:54.452Z,80.67
2022-10-01T12:03:21.584Z,80.22
2022-10-01T12:07:01.557Z,79.75
2022-10-01T12:10:41.816Z,79.63
2022-10-01T12:14:18.212Z,78.20
2022-10-01T12:18:06.106Z,79.25
2022-10-01T12:21:33.833Z,80.52
2022-10-01T12:24:55.780Z,80.00
2022-10-01T12:28:31.223Z,80.26
2022-10-01T12:32:06.255Z,80.64
2022-10-01T12:35:56.974Z,81.31
2022-10-01T12:39:34.327Z,81.72
2022-10-01T12:43:07.928Z,80.69
2022-10-01T12:47:11.394Z,81.35
2022-10-01T12:51:06.797Z,81.50
2022-10-01T12:55:07.204Z,81.51
2022-10-01T12:58:56.560Z,81.87
2022-10-01T13:02:27.233Z,81.49
2022-10-01T13:06:22.524Z,81.81
2022-10-01T13:10:08.487Z,81.64
2022-10-01T13:13:38.775Z,80.71
2022-10-01T13:17:10.204Z,77.68
2022-10-01T13:20:54.217Z,77.54
2022-10-01T13:24:42.502Z,78.53
2022-10-01T13:28:10.981Z,78.75
2022-10-01T13:31:39.554Z,79.25
2022-10-01T13:35:23.982Z,78.53
2022-10-01T13:38:50.343Z,77.15
2022-10-01T13:42:30.100Z,77.94
2022-10-01T13:45:54.746Z,78.97
2022-10-01T13:49:36.607Z,77.29
2022-10-01T13:53:08.345Z,79.42
2022-10-01T13:56:35.118Z,78.11
2022-10-01T14:00:03.046Z,78.02
2022-10-01T14:03:39.318Z,79.65
2022-10-01T14:07:11.489Z,81.91
2022-10-01T14:11:02.247Z,84.75
2022-10-01T14:14:56.127Z,87.42
2022-10-01T14:18:26.610Z,88.14
2022-10-01T14:22:12.100Z,88.24
2022-10-01T14:25:44.197Z,89.13
2022-10-01T14:29:37.873Z,90.39
2022-10-01T14:33:23.180Z,90.67
2022-10-01T14:36:48.241Z,90.40
2022-10-01T14:40:25.100Z,89.77
2022-10-01T14:44:19.579Z,89.37
2022-10-01T14:47:46.063Z,88.16
2022-10-01T14:51:23.287Z,88.49
2022-10-01T14:55:02.030Z,88.51
2022-10-01T14:58:39.226Z,88.44
2022-10-01T15:02:04.504Z,87.52
2022-10-01T15:05:27.967Z,88.01
2022-10-01T15:08:54.893Z,88.11
2022-10-01T15:12:20.965Z,87.68
2022-10-01T15:15:43.145Z,86.57
2022-10-01T15:19:10.009Z,87.17
2022-10-01T15:22:35.915Z,87.01
2022-10-01T15:26:00.210Z,86.85
2022-10-01T15:29:24.006Z,87.63
2022-10-01T15:32:48.241Z,86.66
2022-10-01T15:36:17.276Z,87.35
2022-10-01T15:39:41.335Z,87.25
2022-10-01T15:43:14.669Z,87.84
2022-10-01T15:46:36.735Z,86.69
2022-10-01T15:50:13.677Z,87.41
2022-10-01T15:53:35.529Z,87.27
2022-10-01T15:56:57.452Z,86.82
2022-10-01T16:00:24.803Z,87.17
2022-10-01T16:04:09.399Z,86.82
2022-10-01T16:07:35.412Z,86.29
2022-10-01T16:11:31.913Z,86.85
2022-10-01T16:15:04.546Z,86.39
2022-10-01T16:18:30.622Z,87.14
2022-10-01T16:22:28.747Z,86.78
2022-10-01T16:25:50.463Z,86.65
2022-10-01T16:29:12.060Z,84.77
2022-10-01T16:32:36.474Z,85.98
2022-10-01T16:36:09.821Z,86.05
2022-10-01T16:39:31.364Z,83.81
2022-10-01T16:42:56.473Z,84.93
2022-10-01T16:46:18.162Z,84.86
2022-10-01T16:49:39.760Z,83.55
2022-10-01T16:53:04.359Z,84.39
2022-10-01T16:56:27.294Z,83.64
2022-10-01T16:59:51.448Z,83.25
2022-10-01T17:03:17.655Z,83.28
2022-10-01T17:06:41.879Z,83.54
2022-10-01T17:10:06.424Z,83.29
2022-10-01T17:13:34.793Z,84.16
2022-10-01T17:16:56.406Z,83.77
2022-10-01T17:20:18.190Z,83.27
2022-10-01T17:23:39.917Z,81.61
2022-10-01T17:27:03.974Z,81.58
2022-10-01T17:30:26.592Z,80.23
2022-10-01T17:33:48.140Z,79.85
2022-10-01T17:37:09.597Z,80.32
2022-10-01T17:40:34.222Z,80.15
2022-10-01T17:43:55.714Z,79.63
2022-10-01T17:47:19.728Z,80.13
2022-10-01T17:50:44.639Z,80.90
2022-10-01T17:54:08.487Z,80.88
2022-10-01T17:57:32.521Z,82.06
2022-10-01T18:00:54.248Z,82.31
2022-10-01T18:04:15.802Z,82.26
2022-10-01T18:07:37.375Z,81.79
2022-10-01T18:11:12.417Z,82.62
2022-10-01T18:14:36.272Z,82.45
2022-10-01T18:19:03.574Z,82.44
2022-10-01T18:21:39.330Z,82.29
2022-10-01T18:25:00.927Z,81.30
2022-10-01T18:28:27.080Z,81.62
2022-10-01T18:32:25.202Z,82.47
2022-10-01T18:35:52.999Z,81.60
2022-10-01T18:39:38.433Z,83.37
2022-10-01T18:43:06.735Z,82.90
2022-10-01T18:46:42.248Z,83.31
2022-10-01T18:50:33.157Z,81.81
2022-10-01T18:54:09.292Z,81.62
2022-10-01T18:57:32.322Z,81.90
2022-10-01T19:00:56.874Z,80.68
2022-10-01T19:04:46.131Z,81.56
2022-10-01T19:08:13.534Z,81.53
2022-10-01T19:12:22.991Z,80.36
2022-10-01T19:16:31.151Z,80.76
2022-10-01T19:20:11.148Z,80.30
2022-10-01T19:24:00.124Z,81.87
2022-10-01T19:27:42.919Z,81.35
2022-10-01T19:31:12.772Z,81.17
2022-10-01T19:34:41.451Z,82.46
2022-10-01T19:38:17.159Z,81.39
2022-10-01T19:41:51.428Z,81.73
2022-10-01T19:45:24.187Z,81.62
2022-10-01T19:49:08.604Z,82.12
2022-10-01T19:52:34.913Z,82.76
2022-10-01T19:56:00.808Z,83.14
2022-10-01T19:59:22.470Z,82.73
2022-10-01T20:03:02.621Z,81.95
2022-10-01T20:06:48.628Z,80.75
2022-10-01T20:10:18.922Z,80.52
2022-10-01T20:14:07.055Z,81.28
2022-10-01T20:17:37.750Z,79.75
2022-10-01T20:21:20.929Z,80.96
2022-10-01T20:25:05.328Z,79.41
2022-10-01T20:28:52.006Z,79.39
2022-10-01T20:32:26.889Z,80.44
2022-10-01T20:36:35.075Z,79.15
2022-10-01T20:40:10.826Z,80.03
2022-10-01T20:43:35.436Z,77.78
2022-10-01T20:47:04.547Z,78.35
2022-10-01T20:50:34.075Z,78.45
2022-10-01T20:54:05.953Z,76.71
2022-10-01T20:57:42.059Z,77.33
2022-10-01T21:01:13.199Z,76.09
2022-10-01T21:04:38.967Z,77.83
2022-10-01T21:08:21.683Z,77.56
2022-10-01T21:11:49.834Z,74.76
2022-10-01T21:15:17.417Z,75.27
2022-10-01T21:19:17.355Z,75.50
2022-10-01T21:23:04.804Z,76.49
2022-10-01T21:26:54.268Z,75.67
2022-10-01T21:30:21.319Z,75.99
2022-10-01T21:34:12.084Z,75.80
2022-10-01T21:37:40.971Z,75.79
2022-10-01T21:41:24.118Z,74.28
2022-10-01T21:44:48.802Z,74.65
2022-10-01T21:48:41.933Z,73.60
2022-10-01T21:52:21.850Z,75.41
2022-10-01T21:55:52.030Z,73.83
2022-10-01T21:59:35.225Z,74.34
2022-10-01T22:03:37.041Z,74.50
2022-10-01T22:07:25.610Z,73.28
2022-10-01T22:10:51.640Z,75.36
2022-10-01T22:14:16.919Z,73.87
2022-10-01T22:17:41.958Z,72.78
2022-10-01T22:21:11.515Z,74.22
2022-10-01T22:24:39.444Z,73.47
2022-10-01T22:28:10.512Z,74.70
2022-10-01T22:31:40.348Z,74.21
2022-10-01T22:35:11.135Z,75.30
2022-10-01T22:38:42.303Z,74.74
2022-10-01T22:42:07.229Z,76.77
2022-10-01T22:45:40.681Z,75.99
2022-10-01T22:49:05.079Z,73.47
2022-10-01T22:53:03.531Z,75.11
2022-10-01T22:56:43.318Z,74.73
2022-10-01T23:00:12.971Z,74.19
2022-10-01T23:03:40.598Z,74.74
2022-10-01T23:07:29.545Z,73.88
2022-10-01T23:10:51.049Z,75.55
2022-10-01T23:14:21.323Z,74.16
2022-10-01T23:17:46.278Z,75.65
2022-10-01T23:21:10.776Z,74.74
2022-10-01T23:24:41.265Z,73.21
2022-10-01T23:28:22.372Z,74.20
2022-10-01T23:31:54.863Z,74.87
2022-10-01T23:35:29.980Z,74.93
2022-10-01T23:39:18.931Z,74.36
2022-10-01T23:42:58.771Z,74.79
2022-10-01T23:46:43.008Z,74.80
2022-10-01T23:50:07.813Z,74.94
2022-10-01T23:53:48.100Z,74.86
2022-10-01T23:57:12.684Z,74.35
